Washingtonville, Pennsylvania
Current Conditions -  °F | °C
As of 6:54 AM on Thursday 23 Oct 2014 (Local Time) from KIPT Reporting Station
Overcast Overcast  
Wind Chill: 52°   Ceiling: 2700
Heat Index: 52°   Visibility: 10mi
Dew Point: 40°   Wind: 16mph
Humidity: 63%   Direction: 290°WNW
Pressure: 29.91"   Gusts: NA
Location:  41.05°N, 76.67°W
Report Text: KIPT 231054Z 29014KT 10SM OVC027 11/04 A2991 RMK AO2 SLP128 T01110044
Loading
Personal Weather Stations






























Interactive Weather Map
Tropical Storm Tracking
New forecast layout! Learn more

10-Day Weather Forecast

Advertisements
Track Severe Weather on mobile